createdAt,value
2023-03-07T00:00:26.635Z,9.45
2023-03-07T00:02:54.494Z,10.32
2023-03-07T00:05:22.309Z,9.95
2023-03-07T00:07:50.054Z,9.70
2023-03-07T00:10:18.154Z,10.48
2023-03-07T00:12:45.994Z,9.82
2023-03-07T00:15:13.968Z,9.88
2023-03-07T00:17:42.191Z,10.55
2023-03-07T00:20:14.151Z,10.48
2023-03-07T00:22:44.105Z,9.82
2023-03-07T00:25:11.808Z,9.65
2023-03-07T00:27:40.118Z,10.13
2023-03-07T00:30:10.033Z,9.90
2023-03-07T00:32:38.554Z,7.23
2023-03-07T00:35:07.053Z,10.18
2023-03-07T00:37:34.912Z,9.80
2023-03-07T00:40:02.687Z,10.40
2023-03-07T00:42:30.432Z,10.45
2023-03-07T00:44:58.133Z,9.88
2023-03-07T00:47:25.848Z,10.48
2023-03-07T00:49:54.243Z,10.93
2023-03-07T00:52:22.168Z,9.88
2023-03-07T00:54:50.151Z,10.43
2023-03-07T00:57:18.056Z,10.18
2023-03-07T00:59:46.884Z,10.25
2023-03-07T01:02:15.149Z,10.45
2023-03-07T01:04:42.934Z,9.88
2023-03-07T01:07:10.790Z,10.25
2023-03-07T01:09:39.162Z,10.93
2023-03-07T01:12:07.683Z,9.95
2023-03-07T01:14:35.714Z,10.10
2023-03-07T01:17:04.039Z,10.60
2023-03-07T01:19:32.068Z,10.63
2023-03-07T01:22:01.026Z,10.48
2023-03-07T01:24:28.909Z,10.27
2023-03-07T01:26:57.187Z,10.38
2023-03-07T01:29:25.104Z,11.00
2023-03-07T01:31:53.615Z,10.88
2023-03-07T01:34:21.986Z,10.35
2023-03-07T01:36:51.854Z,10.52
2023-03-07T01:39:19.744Z,10.60
2023-03-07T01:41:52.216Z,10.43
2023-03-07T01:44:26.086Z,10.82
2023-03-07T01:47:00.473Z,7.88
2023-03-07T01:49:46.137Z,10.32
2023-03-07T01:52:32.551Z,9.98
2023-03-07T01:55:11.760Z,10.02
2023-03-07T01:57:44.696Z,9.80
2023-03-07T02:03:10.561Z,9.93
2023-03-07T02:05:59.640Z,10.55
2023-03-07T02:08:30.510Z,10.25
2023-03-07T02:10:58.448Z,11.57
2023-03-07T02:13:26.329Z,10.75
2023-03-07T02:15:55.215Z,10.75
2023-03-07T02:18:28.480Z,10.70
2023-03-07T02:21:09.324Z,11.68
2023-03-07T02:23:49.089Z,11.13
2023-03-07T02:26:22.945Z,10.85
2023-03-07T02:28:51.784Z,11.13
2023-03-07T02:31:19.743Z,11.50
2023-03-07T02:33:47.585Z,10.73
2023-03-07T02:36:22.190Z,11.65
2023-03-07T02:39:06.819Z,10.88
2023-03-07T02:41:36.908Z,11.57
2023-03-07T02:44:11.774Z,10.60
2023-03-07T02:46:39.792Z,11.27
2023-03-07T02:49:07.710Z,11.25
2023-03-07T02:51:35.606Z,10.43
2023-03-07T02:54:03.521Z,11.10
2023-03-07T02:56:31.242Z,9.77
2023-03-07T02:58:59.015Z,11.23
2023-03-07T03:01:27.207Z,10.75
2023-03-07T03:03:56.077Z,10.93
2023-03-07T03:06:24.331Z,11.48
2023-03-07T03:08:52.610Z,10.52
2023-03-07T03:11:20.715Z,11.18
2023-03-07T03:13:49.062Z,10.68
2023-03-07T03:16:17.320Z,11.05
2023-03-07T03:18:45.113Z,10.80
2023-03-07T03:21:14.424Z,10.60
2023-03-07T03:23:42.222Z,10.77
2023-03-07T03:26:11.780Z,10.38
2023-03-07T03:28:40.371Z,10.73
2023-03-07T03:31:14.897Z,9.93
2023-03-07T03:33:44.597Z,10.35
2023-03-07T03:36:16.909Z,10.43
2023-03-07T03:38:47.217Z,9.85
2023-03-07T03:41:16.052Z,9.88
2023-03-07T03:43:45.460Z,10.25
2023-03-07T03:46:13.457Z,9.93
2023-03-07T03:48:41.371Z,9.70
2023-03-07T03:51:14.623Z,10.13
2023-03-07T03:53:42.909Z,10.70
2023-03-07T03:56:30.444Z,9.68
2023-03-07T03:59:16.341Z,10.05
2023-03-07T04:01:44.355Z,9.38
2023-03-07T04:04:12.602Z,10.18
2023-03-07T04:06:40.843Z,9.55
2023-03-07T04:09:10.139Z,9.88
2023-03-07T04:11:41.698Z,9.25
2023-03-07T04:14:09.566Z,10.70
2023-03-07T04:16:37.602Z,9.23
2023-03-07T04:19:05.682Z,9.38
2023-03-07T04:21:33.592Z,9.23
2023-03-07T04:24:01.842Z,9.02
2023-03-07T04:26:32.021Z,9.63
2023-03-07T04:28:59.960Z,9.43
2023-03-07T04:31:33.559Z,9.30
2023-03-07T04:34:03.880Z,10.82
2023-03-07T04:36:32.603Z,10.68
2023-03-07T04:39:00.524Z,9.90
2023-03-07T04:41:29.225Z,10.23
2023-03-07T04:44:17.066Z,10.65
2023-03-07T04:46:44.917Z,10.13
2023-03-07T04:49:13.228Z,9.02
2023-03-07T04:51:43.979Z,9.20
2023-03-07T04:54:12.726Z,8.98
2023-03-07T04:56:41.117Z,8.77
2023-03-07T04:59:10.977Z,9.00
2023-03-07T05:01:39.251Z,9.02
2023-03-07T05:04:07.397Z,9.55
2023-03-07T05:06:35.644Z,9.52
2023-03-07T05:09:04.803Z,8.90
2023-03-07T05:11:32.761Z,8.85
2023-03-07T05:14:00.877Z,8.70
2023-03-07T05:16:28.712Z,8.30
2023-03-07T05:18:56.538Z,8.13
2023-03-07T05:21:24.319Z,9.00
2023-03-07T05:23:52.059Z,8.48
2023-03-07T05:26:19.950Z,9.05
2023-03-07T05:28:49.427Z,8.80
2023-03-07T05:31:18.570Z,9.02
2023-03-07T05:33:47.321Z,8.30
2023-03-07T05:36:16.263Z,8.35
2023-03-07T05:38:44.395Z,8.55
2023-03-07T05:41:12.971Z,8.68
2023-03-07T05:43:41.205Z,8.20
2023-03-07T05:46:09.285Z,8.73
2023-03-07T05:48:37.355Z,8.55
2023-03-07T05:51:05.985Z,8.15
2023-03-07T05:53:33.998Z,8.63
2023-03-07T05:56:02.437Z,8.90
2023-03-07T05:58:31.253Z,8.45
2023-03-07T06:01:03.714Z,8.45
2023-03-07T06:03:32.721Z,8.73
2023-03-07T06:06:00.626Z,9.73
2023-03-07T06:08:28.486Z,8.60
2023-03-07T06:10:56.570Z,8.75
2023-03-07T06:13:26.410Z,8.57
2023-03-07T06:15:55.621Z,8.27
2023-03-07T06:18:25.765Z,8.07
2023-03-07T06:21:02.307Z,8.90
2023-03-07T06:23:36.175Z,8.98
2023-03-07T06:26:08.513Z,8.35
2023-03-07T06:28:36.976Z,8.07
2023-03-07T06:31:10.737Z,8.10
2023-03-07T06:33:39.522Z,8.73
2023-03-07T06:36:10.081Z,8.82
2023-03-07T06:38:41.335Z,8.55
2023-03-07T06:41:09.339Z,8.35
2023-03-07T06:43:37.684Z,8.65
2023-03-07T06:46:06.523Z,8.32
2023-03-07T06:48:38.039Z,8.40
2023-03-07T06:51:09.835Z,8.15
2023-03-07T06:53:41.267Z,7.63
2023-03-07T06:56:09.558Z,8.40
2023-03-07T06:58:38.939Z,8.50
2023-03-07T07:01:14.899Z,8.15
2023-03-07T07:03:42.929Z,8.07
2023-03-07T07:06:12.336Z,8.00
2023-03-07T07:08:40.399Z,8.27
2023-03-07T07:11:13.463Z,8.05
2023-03-07T07:13:41.598Z,7.70
2023-03-07T07:16:12.746Z,7.90
2023-03-07T07:18:42.521Z,7.97
2023-03-07T07:21:11.986Z,7.47
2023-03-07T07:23:40.064Z,7.93
2023-03-07T07:26:09.195Z,7.65
2023-03-07T07:28:37.607Z,8.00
2023-03-07T07:31:07.388Z,7.32
2023-03-07T07:33:36.166Z,8.23
2023-03-07T07:36:08.921Z,7.78
2023-03-07T07:38:37.400Z,7.78
2023-03-07T07:41:07.099Z,8.10
2023-03-07T07:43:35.447Z,7.50
2023-03-07T07:46:15.903Z,7.40
2023-03-07T07:48:48.081Z,7.45
2023-03-07T07:51:17.199Z,7.40
2023-03-07T07:53:45.244Z,7.32
2023-03-07T07:56:13.573Z,7.22
2023-03-07T07:58:41.685Z,7.18
2023-03-07T08:01:29.994Z,7.93
2023-03-07T08:03:59.313Z,7.57
2023-03-07T08:06:28.419Z,6.75
2023-03-07T08:08:59.953Z,7.57
2023-03-07T08:11:29.506Z,7.25
2023-03-07T08:13:58.692Z,6.85
2023-03-07T08:16:27.949Z,6.93
2023-03-07T08:18:59.583Z,7.20
2023-03-07T08:21:28.045Z,6.38
2023-03-07T08:23:56.592Z,6.60
2023-03-07T08:26:25.483Z,6.68
2023-03-07T08:28:53.724Z,6.82
2023-03-07T08:31:26.615Z,6.60
2023-03-07T08:33:56.547Z,6.90
2023-03-07T08:36:24.561Z,6.68
2023-03-07T08:38:52.847Z,6.63
2023-03-07T08:41:22.983Z,6.90
2023-03-07T08:43:51.510Z,6.97
2023-03-07T08:46:19.796Z,6.55
2023-03-07T08:48:49.485Z,7.05
2023-03-07T08:51:20.733Z,5.97
2023-03-07T08:53:50.638Z,6.90
2023-03-07T08:56:20.611Z,6.90
2023-03-07T08:58:48.505Z,6.38
2023-03-07T09:01:22.985Z,7.32
2023-03-07T09:03:51.207Z,6.65
2023-03-07T09:06:21.421Z,6.88
2023-03-07T09:08:50.442Z,7.00
2023-03-07T09:11:18.990Z,6.80
2023-03-07T09:13:52.323Z,6.75
2023-03-07T09:16:22.332Z,7.03
2023-03-07T09:18:51.092Z,7.30
2023-03-07T09:21:18.965Z,6.75
2023-03-07T09:23:46.917Z,6.72
2023-03-07T09:26:16.595Z,7.15
2023-03-07T09:28:44.684Z,6.95
2023-03-07T09:31:15.008Z,6.72
2023-03-07T09:33:46.527Z,7.10
2023-03-07T09:36:15.448Z,7.05
2023-03-07T09:38:48.035Z,7.10
2023-03-07T09:41:33.749Z,6.78
2023-03-07T09:44:34.010Z,6.68
2023-03-07T09:47:43.223Z,6.75
2023-03-07T09:50:29.445Z,6.32
2023-03-07T09:53:04.451Z,6.75
2023-03-07T09:55:58.344Z,6.47
2023-03-07T09:58:28.408Z,6.78
2023-03-07T10:01:24.090Z,6.72
2023-03-07T10:04:06.350Z,6.45
2023-03-07T10:06:42.970Z,6.57
2023-03-07T10:09:24.716Z,6.57
2023-03-07T10:15:45.894Z,6.25
2023-03-07T10:18:45.155Z,6.35
2023-03-07T10:21:27.990Z,6.55
2023-03-07T10:24:20.346Z,5.90
2023-03-07T10:26:53.812Z,6.45
2023-03-07T10:29:28.795Z,5.95
2023-03-07T10:32:23.312Z,6.30
2023-03-07T10:35:02.958Z,6.35
2023-03-07T10:37:56.896Z,6.82
2023-03-07T10:40:41.570Z,5.78
2023-03-07T10:43:23.635Z,5.80
2023-03-07T10:46:02.258Z,6.15
2023-03-07T10:48:31.623Z,6.22
2023-03-07T10:51:41.889Z,6.05
2023-03-07T10:54:17.086Z,6.85
2023-03-07T10:57:10.949Z,6.60
2023-03-07T10:59:43.678Z,5.93
2023-03-07T11:02:38.562Z,5.93
2023-03-07T11:05:31.336Z,6.43
2023-03-07T11:08:01.362Z,6.45
2023-03-07T11:10:40.164Z,7.70
2023-03-07T11:13:17.797Z,6.50
2023-03-07T11:15:46.840Z,6.78
2023-03-07T11:18:39.089Z,5.13
2023-03-07T11:21:25.825Z,6.80
2023-03-07T11:24:18.423Z,6.20
2023-03-07T11:26:46.244Z,6.63
2023-03-07T11:29:14.969Z,6.97
2023-03-07T11:32:05.923Z,6.15
2023-03-07T11:34:59.691Z,6.10
2023-03-07T11:37:43.619Z,6.07
2023-03-07T11:40:20.341Z,5.80
2023-03-07T11:43:04.582Z,6.78
2023-03-07T11:46:35.999Z,6.32
2023-03-07T11:49:55.240Z,5.55
2023-03-07T11:52:26.179Z,6.10
2023-03-07T11:55:23.128Z,6.25
2023-03-07T11:58:38.576Z,6.65
2023-03-07T12:01:46.529Z,5.57
2023-03-07T12:04:50.032Z,5.90
2023-03-07T12:07:53.686Z,5.90
2023-03-07T12:13:44.898Z,5.82
2023-03-07T12:16:34.469Z,6.10
2023-03-07T12:19:38.576Z,4.00
2023-03-07T12:22:29.749Z,5.72
2023-03-07T12:25:21.893Z,6.25
2023-03-07T12:28:17.998Z,6.13
2023-03-07T12:31:12.797Z,5.65
2023-03-07T12:34:34.437Z,6.28
2023-03-07T12:40:01.073Z,6.15
2023-03-07T12:42:44.768Z,6.63
2023-03-07T12:45:27.254Z,6.03
2023-03-07T12:48:07.601Z,6.00
2023-03-07T12:50:52.728Z,6.18
2023-03-07T12:53:56.522Z,5.75
2023-03-07T12:56:53.682Z,5.53
2023-03-07T12:59:22.724Z,5.30
2023-03-07T13:02:29.730Z,6.03
2023-03-07T13:05:04.443Z,5.47
2023-03-07T13:07:35.334Z,5.30
2023-03-07T13:10:14.456Z,5.60
2023-03-07T13:12:42.640Z,5.15
2023-03-07T13:15:19.482Z,5.32
2023-03-07T13:17:48.026Z,5.63
2023-03-07T13:20:28.181Z,5.30
2023-03-07T13:23:10.971Z,4.90
2023-03-07T13:25:48.523Z,4.90
2023-03-07T13:28:33.924Z,5.15
2023-03-07T13:31:17.152Z,4.70
2023-03-07T13:33:45.476Z,4.78
2023-03-07T13:36:40.612Z,4.88
2023-03-07T13:39:38.366Z,4.22
2023-03-07T13:42:50.355Z,4.22
2023-03-07T13:45:40.704Z,4.50
2023-03-07T13:48:15.835Z,4.50
2023-03-07T13:51:08.200Z,4.43
2023-03-07T13:53:54.405Z,4.07
2023-03-07T13:56:32.239Z,4.43
2023-03-07T13:59:23.508Z,4.22
2023-03-07T14:02:07.538Z,4.70
2023-03-07T14:04:46.286Z,4.50
2023-03-07T14:07:33.360Z,4.50
2023-03-07T14:10:24.838Z,4.70
2023-03-07T14:14:11.179Z,4.13
2023-03-07T14:23:56.469Z,4.38
2023-03-07T14:26:40.186Z,4.50
2023-03-07T14:29:30.901Z,5.00
2023-03-07T14:32:01.279Z,4.53
2023-03-07T14:34:35.336Z,4.88
2023-03-07T14:37:12.687Z,5.00
2023-03-07T14:39:58.391Z,4.90
2023-03-07T14:43:02.290Z,4.63
2023-03-07T14:45:57.344Z,4.68
2023-03-07T14:48:54.173Z,5.07
2023-03-07T14:51:29.917Z,4.32
2023-03-07T14:54:02.005Z,4.32
2023-03-07T14:56:35.227Z,4.38
2023-03-07T14:59:05.574Z,4.43
2023-03-07T15:04:39.029Z,4.47
2023-03-07T15:07:21.203Z,4.80
2023-03-07T15:09:50.059Z,4.68
2023-03-07T15:12:28.459Z,4.68
2023-03-07T15:15:02.356Z,5.03
2023-03-07T15:17:45.949Z,5.20
2023-03-07T15:20:22.564Z,4.85
2023-03-07T15:22:55.008Z,4.97
2023-03-07T15:25:26.519Z,5.05
2023-03-07T15:28:04.565Z,4.70
2023-03-07T15:30:38.515Z,4.88
2023-03-07T15:33:32.648Z,5.20
2023-03-07T15:36:20.186Z,5.18
2023-03-07T15:38:51.710Z,5.28
2023-03-07T15:41:37.614Z,5.35
2023-03-07T15:44:11.942Z,5.55
2023-03-07T15:46:48.869Z,5.40
2023-03-07T15:49:26.216Z,5.57
2023-03-07T15:52:00.270Z,4.93
2023-03-07T15:54:41.771Z,5.68
2023-03-07T16:00:39.216Z,4.90
2023-03-07T16:03:30.726Z,4.90
2023-03-07T16:06:47.453Z,5.57
2023-03-07T16:09:38.752Z,5.00
2023-03-07T16:12:22.047Z,5.43
2023-03-07T16:15:16.632Z,5.78
2023-03-07T16:18:08.257Z,5.97
2023-03-07T16:20:38.964Z,6.07
2023-03-07T16:23:13.166Z,6.00
2023-03-07T16:25:43.146Z,5.95
2023-03-07T16:28:15.346Z,5.53
2023-03-07T16:30:47.419Z,5.50
2023-03-07T16:33:17.065Z,5.78
2023-03-07T16:38:16.381Z,5.40
2023-03-07T16:40:50.428Z,5.60
2023-03-07T16:43:34.741Z,5.55
2023-03-07T16:46:10.925Z,5.97
2023-03-07T16:48:39.243Z,6.03
2023-03-07T16:51:25.751Z,6.35
2023-03-07T16:53:57.092Z,5.68
2023-03-07T16:56:32.882Z,5.45
2023-03-07T16:59:03.054Z,5.22
2023-03-07T17:01:32.573Z,5.65
2023-03-07T17:04:03.368Z,5.53
2023-03-07T17:06:39.099Z,6.30
2023-03-07T17:09:14.328Z,5.70
2023-03-07T17:11:51.805Z,6.20
2023-03-07T17:14:21.559Z,5.93
2023-03-07T17:16:54.127Z,5.20
2023-03-07T17:19:29.600Z,6.57
2023-03-07T17:22:00.578Z,5.90
2023-03-07T17:24:31.486Z,5.88
2023-03-07T17:27:03.939Z,5.72
2023-03-07T17:29:46.795Z,5.60
2023-03-07T17:32:15.634Z,5.60
2023-03-07T17:34:45.656Z,5.60
2023-03-07T17:37:13.894Z,5.53
2023-03-07T17:39:42.837Z,5.88
2023-03-07T17:42:11.931Z,5.90
2023-03-07T17:44:40.236Z,5.78
2023-03-07T17:47:08.810Z,5.05
2023-03-07T17:49:39.433Z,5.88
2023-03-07T17:52:08.634Z,5.75
2023-03-07T17:54:40.269Z,5.68
2023-03-07T17:57:08.875Z,5.72
2023-03-07T17:59:37.510Z,5.75
2023-03-07T18:02:08.817Z,5.55
2023-03-07T18:04:40.049Z,5.35
2023-03-07T18:07:11.896Z,5.45
2023-03-07T18:09:40.990Z,5.72
2023-03-07T18:12:10.668Z,5.63
2023-03-07T18:14:39.897Z,5.50
2023-03-07T18:17:09.089Z,5.90
2023-03-07T18:19:39.684Z,5.60
2023-03-07T18:22:08.408Z,5.70
2023-03-07T18:24:37.550Z,5.45
2023-03-07T18:27:09.035Z,5.60
2023-03-07T18:29:37.428Z,5.18
2023-03-07T18:32:06.702Z,5.55
2023-03-07T18:34:35.208Z,5.07
2023-03-07T18:37:05.503Z,5.80
2023-03-07T18:39:35.803Z,5.32
2023-03-07T18:42:10.129Z,5.90
2023-03-07T18:44:49.807Z,5.20
2023-03-07T18:47:20.542Z,5.38
2023-03-07T18:49:52.243Z,5.68
2023-03-07T18:52:21.664Z,5.63
2023-03-07T18:54:50.736Z,5.70
2023-03-07T18:57:20.565Z,5.45
2023-03-07T18:59:51.155Z,5.47
2023-03-07T19:02:19.369Z,5.43
2023-03-07T19:04:47.483Z,6.00
2023-03-07T19:07:15.676Z,6.00
2023-03-07T19:09:47.545Z,5.57
2023-03-07T19:12:21.520Z,5.50
2023-03-07T19:14:51.975Z,5.40
2023-03-07T19:17:20.196Z,5.63
2023-03-07T19:19:53.803Z,6.03
2023-03-07T19:22:27.060Z,5.65
2023-03-07T19:24:56.102Z,5.68
2023-03-07T19:27:32.582Z,5.25
2023-03-07T19:30:01.043Z,5.28
2023-03-07T19:32:31.121Z,5.50
2023-03-07T19:35:01.241Z,5.65
2023-03-07T19:37:30.581Z,5.50
2023-03-07T19:39:59.990Z,5.43
2023-03-07T19:42:31.306Z,4.07
2023-03-07T19:45:00.365Z,4.95
2023-03-07T19:47:30.647Z,5.22
2023-03-07T19:50:00.826Z,5.18
2023-03-07T19:52:32.502Z,5.50
2023-03-07T19:55:02.603Z,5.60
2023-03-07T19:57:31.405Z,5.25
2023-03-07T20:00:02.705Z,5.60
2023-03-07T20:02:40.168Z,5.30
2023-03-07T20:05:11.470Z,4.72
2023-03-07T20:07:40.101Z,5.22
2023-03-07T20:10:12.412Z,5.55
2023-03-07T20:12:43.409Z,5.50
2023-03-07T20:15:14.879Z,5.40
2023-03-07T20:20:12.906Z,4.97
2023-03-07T20:22:43.047Z,5.13
2023-03-07T20:25:13.935Z,4.97
2023-03-07T20:27:43.646Z,5.05
2023-03-07T20:30:12.607Z,4.60
2023-03-07T20:32:43.099Z,4.80
2023-03-07T20:35:12.666Z,4.95
2023-03-07T20:37:44.853Z,4.93
2023-03-07T20:40:19.832Z,4.63
2023-03-07T20:42:54.840Z,4.95
2023-03-07T20:45:29.896Z,5.25
2023-03-07T20:48:18.864Z,5.43
2023-03-07T20:50:47.841Z,5.43
2023-03-07T20:53:22.930Z,4.97
2023-03-07T20:55:51.464Z,4.50
2023-03-07T20:58:19.668Z,4.90
2023-03-07T21:00:54.496Z,4.55
2023-03-07T21:03:24.188Z,4.63
2023-03-07T21:09:09.205Z,5.30
2023-03-07T21:11:56.367Z,4.72
2023-03-07T21:14:31.031Z,4.90
2023-03-07T21:17:15.751Z,4.65
2023-03-07T21:19:57.129Z,4.75
2023-03-07T21:22:44.663Z,4.90
2023-03-07T21:25:32.637Z,5.57
2023-03-07T21:28:17.206Z,4.75
2023-03-07T21:31:25.810Z,5.00
2023-03-07T21:34:07.355Z,4.85
2023-03-07T21:36:59.350Z,4.65
2023-03-07T21:39:32.772Z,4.80
2023-03-07T21:42:08.982Z,5.00
2023-03-07T21:46:18.053Z,4.85
2023-03-07T21:49:40.308Z,4.55
2023-03-07T21:51:57.409Z,4.80
2023-03-07T21:54:34.782Z,5.20
2023-03-07T21:57:25.365Z,5.40
2023-03-07T21:59:53.643Z,5.38
2023-03-07T22:02:35.501Z,4.78
2023-03-07T22:05:11.763Z,5.55
2023-03-07T22:08:29.911Z,5.00
2023-03-07T22:10:35.862Z,4.72
2023-03-07T22:13:06.724Z,5.22
2023-03-07T22:15:41.343Z,5.35
2023-03-07T22:18:10.078Z,5.43
2023-03-07T22:20:40.836Z,5.22
2023-03-07T22:23:15.697Z,5.55
2023-03-07T22:25:44.912Z,5.00
2023-03-07T22:28:17.226Z,5.10
2023-03-07T22:30:57.382Z,4.70
2023-03-07T22:33:42.150Z,5.05
2023-03-07T22:36:17.856Z,5.40
2023-03-07T22:38:56.849Z,5.68
2023-03-07T22:41:26.147Z,5.32
2023-03-07T22:43:58.544Z,5.00
2023-03-07T22:46:26.637Z,5.60
2023-03-07T22:48:58.255Z,4.82
2023-03-07T22:51:30.068Z,5.65
2023-03-07T22:53:59.313Z,4.33
2023-03-07T22:56:31.276Z,5.32
2023-03-07T22:59:01.776Z,5.70
2023-03-07T23:01:38.453Z,5.40
2023-03-07T23:04:11.240Z,5.40
2023-03-07T23:06:57.366Z,5.35
2023-03-07T23:09:28.258Z,5.70
2023-03-07T23:12:11.064Z,5.75
2023-03-07T23:14:43.705Z,5.80
2023-03-07T23:17:31.398Z,5.70
2023-03-07T23:20:12.973Z,5.55
2023-03-07T23:22:51.941Z,6.23
2023-03-07T23:25:20.577Z,5.43
2023-03-07T23:27:58.804Z,5.53
2023-03-07T23:30:36.222Z,5.20
2023-03-07T23:33:06.934Z,5.63
2023-03-07T23:39:41.999Z,5.40
2023-03-07T23:42:29.794Z,5.82
2023-03-07T23:45:01.006Z,5.60
2023-03-07T23:47:33.671Z,5.75
2023-03-07T23:50:01.802Z,6.05
2023-03-07T23:52:30.466Z,5.78
2023-03-07T23:55:01.371Z,5.75
2023-03-07T23:57:31.006Z,6.13
2023-03-07T23:59:59.770Z,5.78
